Time;durP1;ratioP1;P1;durP2;ratioP2;P2;SDS_P1;SDS_P2;PMS_P1;PMS_P2;Temp;Humidity;BMP_temperature;BMP_pressure;BME280_temperature;BME280_humidity;BME280_pressure;Samples;Min_cycle;Max_cycle;Signal;HPM_P1;HPM_P2
2023/01/07 00:02:21;;;;;;;3.95;2.90;;;;;;;4.91;100.00;100610.22;6346874;28;20050;-85
2023/01/07 00:05:24;;;;;;;8.55;3.67;;;;;;;4.91;100.00;100607.63;6363981;27;20398;-85
2023/01/07 00:08:29;;;;;;;3.75;2.47;;;;;;;4.81;100.00;100601.03;6330971;28;20048;-79
2023/01/07 00:11:33;;;;;;;3.72;2.67;;;;;;;4.83;100.00;100602.66;6347046;27;20046;-79
2023/01/07 00:14:36;;;;;;;5.15;2.55;;;;;;;4.81;100.00;100599.28;6346063;28;20092;-85
2023/01/07 00:17:37;;;;;;;4.90;3.00;;;;;;;4.84;100.00;100608.72;6347121;28;20102;-85
2023/01/07 00:20:38;;;;;;;6.75;2.75;;;;;;;4.84;100.00;100614.72;6348074;28;20065;-86
2023/01/07 00:23:40;;;;;;;4.22;2.90;;;;;;;4.82;100.00;100602.72;6346505;28;20093;-80
2023/01/07 00:26:41;;;;;;;11.55;3.17;;;;;;;4.86;100.00;100604.34;6345627;28;20044;-85
2023/01/07 00:29:41;;;;;;;8.23;3.88;;;;;;;4.92;100.00;100614.50;6346627;28;20039;-85
2023/01/07 00:36:07;;;;;;;6.30;3.33;;;;;;;4.90;100.00;100605.06;6346562;28;20126;-80
2023/01/07 00:39:18;;;;;;;7.85;4.30;;;;;;;4.91;100.00;100612.78;6345514;28;20128;-86
2023/01/07 00:45:38;;;;;;;4.72;3.20;;;;;;;5.01;100.00;100611.63;6345902;28;20055;-86
2023/01/07 00:48:40;;;;;;;7.72;4.13;;;;;;;4.92;100.00;100606.75;6328402;28;20055;-80
2023/01/07 00:51:41;;;;;;;7.15;3.47;;;;;;;5.02;100.00;100600.41;6345615;28;20074;-80
2023/01/07 00:54:43;;;;;;;7.50;3.85;;;;;;;4.96;100.00;100610.94;6344752;28;20036;-80
2023/01/07 00:57:45;;;;;;;4.75;3.08;;;;;;;5.05;100.00;100608.06;6346621;28;20407;-85
2023/01/07 01:00:46;;;;;;;4.50;3.72;;;;;;;4.93;100.00;100617.94;6327646;28;20059;-80
2023/01/07 01:03:47;;;;;;;5.93;3.88;;;;;;;4.89;100.00;100612.00;6346539;28;20483;-86
2023/01/07 01:06:50;;;;;;;7.45;4.30;;;;;;;4.89;100.00;100611.16;6346502;28;20241;-85
2023/01/07 01:09:51;;;;;;;8.10;3.70;;;;;;;4.88;100.00;100612.03;6345063;28;20126;-86
2023/01/07 01:12:51;;;;;;;4.63;2.97;;;;;;;4.89;100.00;100611.16;6345559;28;20035;-80
2023/01/07 01:15:52;;;;;;;6.60;3.80;;;;;;;4.94;100.00;100606.69;6344411;28;20031;-79
2023/01/07 01:18:53;;;;;;;6.35;3.00;;;;;;;4.83;100.00;100607.00;6344375;28;20074;-80
2023/01/07 01:21:54;;;;;;;4.60;3.42;;;;;;;4.76;100.00;100598.56;6345005;28;20065;-80
2023/01/07 01:24:55;;;;;;;6.05;3.50;;;;;;;4.69;100.00;100573.75;6344356;28;20050;-80
2023/01/07 01:27:58;;;;;;;6.05;3.42;;;;;;;4.83;100.00;100589.72;6328362;28;20050;-85
2023/01/07 01:30:58;;;;;;;3.85;2.80;;;;;;;4.84;100.00;100583.69;6362477;27;20475;-85
2023/01/07 01:33:59;;;;;;;6.75;2.60;;;;;;;4.88;100.00;100566.34;6344754;28;20589;-85
2023/01/07 01:37:00;;;;;;;13.27;3.85;;;;;;;4.83;100.00;100565.63;6346329;28;20039;-85
2023/01/07 01:40:04;;;;;;;4.40;3.00;;;;;;;4.68;100.00;100571.25;6370362;27;20517;-80
2023/01/07 01:43:27;;;;;;;4.03;2.95;;;;;;;4.86;100.00;100565.56;6370438;27;20039;-85
2023/01/07 01:46:43;;;;;;;5.85;3.22;;;;;;;4.78;100.00;100564.94;6371514;27;20059;-85
2023/01/07 01:49:50;;;;;;;3.83;2.53;;;;;;;4.78;100.00;100581.28;6369552;27;20043;-84
2023/01/07 01:53:06;;;;;;;5.05;2.90;;;;;;;4.77;100.00;100579.56;6370054;27;20067;-84
2023/01/07 01:56:13;;;;;;;6.85;2.85;;;;;;;4.81;100.00;100583.75;6352077;27;20088;-80
2023/01/07 01:59:19;;;;;;;12.32;3.80;;;;;;;4.72;100.00;100552.19;6369350;27;20039;-85
2023/01/07 02:02:28;;;;;;;4.75;3.42;;;;;;;4.88;100.00;100568.06;6369019;28;20050;-80
2023/01/07 02:05:33;;;;;;;4.00;2.58;;;;;;;4.96;100.00;100574.72;6369744;28;20035;-80
2023/01/07 02:08:36;;;;;;;5.60;3.20;;;;;;;4.93;100.00;100569.63;6369662;28;20051;-85
2023/01/07 02:12:04;;;;;;;6.22;2.63;;;;;;;5.03;100.00;100575.38;6370216;28;20039;-85
2023/01/07 02:15:08;;;;;;;3.28;2.65;;;;;;;5.10;100.00;100576.03;6371659;27;20050;-80
2023/01/07 02:18:30;;;;;;;5.18;2.80;;;;;;;5.09;100.00;100574.38;6351646;27;20047;-80
2023/01/07 02:21:30;;;;;;;2.77;2.10;;;;;;;5.01;100.00;100572.00;6370668;27;20031;-84
2023/01/07 02:25:25;;;;;;;4.53;3.33;;;;;;;4.97;100.00;100576.41;6371031;27;20039;-79
2023/01/07 02:28:59;;;;;;;6.22;2.97;;;;;;;4.94;100.00;100570.47;6301658;27;20057;-80
2023/01/07 02:32:26;;;;;;;4.60;2.90;;;;;;;5.00;100.00;100578.94;6356754;27;20043;-84
2023/01/07 02:35:34;;;;;;;2.45;2.17;;;;;;;5.10;100.00;100578.63;6374215;27;20043;-79
2023/01/07 02:39:03;;;;;;;12.73;1.70;;;;;;;5.07;100.00;100577.00;6374778;27;20050;-84
2023/01/07 02:42:15;;;;;;;4.70;2.38;;;;;;;5.08;100.00;100575.25;6375364;27;20043;-81
2023/01/07 02:46:09;;;;;;;2.78;1.65;;;;;;;4.89;100.00;100556.84;6374437;27;20043;-84
2023/01/07 02:49:14;;;;;;;2.83;2.03;;;;;;;5.05;100.00;100568.44;6289724;27;20055;-80
2023/01/07 02:52:29;;;;;;;3.38;2.63;;;;;;;4.96;100.00;100553.16;6374493;27;20088;-84
2023/01/07 02:56:11;;;;;;;3.78;2.17;;;;;;;5.00;100.00;100554.78;6374660;27;20073;-84
2023/01/07 02:59:21;;;;;;;2.85;2.15;;;;;;;4.99;100.00;100551.34;6351505;27;20278;-79
2023/01/07 03:03:01;;;;;;;3.45;2.38;;;;;;;5.06;100.00;100559.75;6356108;27;20103;-79
2023/01/07 03:06:37;;;;;;;2.55;1.55;;;;;;;4.97;100.00;100553.13;6373820;27;20035;-80
2023/01/07 03:09:53;;;;;;;4.97;1.98;;;;;;;5.13;100.00;100556.13;6359138;27;20062;-79
2023/01/07 03:13:02;;;;;;;3.72;2.70;;;;;;;5.22;100.00;100557.56;6373394;27;20482;-84
2023/01/07 03:16:28;;;;;;;5.50;2.58;;;;;;;5.12;100.00;100550.97;6374072;27;20444;-80
2023/01/07 03:19:35;;;;;;;2.38;1.85;;;;;;;5.03;100.00;100547.78;6335400;27;20051;-80
2023/01/07 03:22:38;;;;;;;2.50;1.88;;;;;;;5.01;100.00;100552.16;6373690;27;20043;-80
2023/01/07 03:25:43;;;;;;;5.30;2.45;;;;;;;5.01;100.00;100552.16;6375344;27;20035;-84
2023/01/07 03:28:48;;;;;;;3.17;2.53;;;;;;;5.02;100.00;100540.94;6373678;27;20047;-85
2023/01/07 03:32:15;;;;;;;2.47;1.77;;;;;;;5.05;100.00;100548.56;6374633;27;20043;-80
2023/01/07 03:35:19;;;;;;;7.82;2.10;;;;;;;4.98;100.00;100538.47;6374507;27;20546;-85
2023/01/07 03:38:22;;;;;;;3.67;2.55;;;;;;;5.11;100.00;100564.81;6373192;27;20063;-85
2023/01/07 03:44:42;;;;;;;3.47;2.40;;;;;;;5.14;100.00;100565.56;6373324;27;20051;-80
2023/01/07 03:47:47;;;;;;;1.77;1.45;;;;;;;5.04;100.00;100562.41;6372098;27;20116;-84
2023/01/07 03:50:47;;;;;;;2.58;1.90;;;;;;;5.21;100.00;100561.06;6373624;27;20044;-80
2023/01/07 03:53:48;;;;;;;4.22;2.80;;;;;;;5.24;100.00;100542.84;6371767;27;20118;-80
2023/01/07 03:56:51;;;;;;;2.58;2.38;;;;;;;5.29;100.00;100550.44;6355775;27;20401;-85
2023/01/07 03:59:55;;;;;;;2.45;1.75;;;;;;;5.24;100.00;100548.84;6372663;27;20046;-80
2023/01/07 04:02:58;;;;;;;5.00;3.00;;;;;;;5.26;100.00;100548.81;6372322;27;20039;-84
2023/01/07 04:05:58;;;;;;;1.80;1.52;;;;;;;5.19;100.00;100552.50;6373293;27;20455;-79
2023/01/07 04:08:59;;;;;;;4.28;2.40;;;;;;;5.19;100.00;100555.94;6372364;27;20053;-84
2023/01/07 04:12:02;;;;;;;4.93;2.20;;;;;;;5.19;100.00;100555.94;6371489;27;20040;-85
2023/01/07 04:15:04;;;;;;;6.82;2.65;;;;;;;5.22;100.00;100561.00;6373759;27;20046;-84
2023/01/07 04:18:05;;;;;;;4.40;2.15;;;;;;;5.22;100.00;100554.97;6372447;27;20035;-85
2023/01/07 04:21:08;;;;;;;5.40;2.92;;;;;;;5.13;100.00;100556.13;6371480;27;20047;-84
2023/01/07 04:24:10;;;;;;;13.15;2.80;;;;;;;5.18;100.00;100554.22;6373654;27;20099;-84
2023/01/07 04:27:11;;;;;;;9.13;2.67;;;;;;;5.11;100.00;100552.72;6372275;27;20035;-84
2023/01/07 04:30:16;;;;;;;3.13;1.73;;;;;;;5.15;100.00;100532.78;6372945;27;20046;-85
2023/01/07 04:33:17;;;;;;;5.32;2.58;;;;;;;5.12;100.00;100533.72;6370860;27;20495;-80
2023/01/07 04:36:18;;;;;;;4.95;2.45;;;;;;;5.19;100.00;100550.75;6371104;27;20043;-85
2023/01/07 04:39:19;;;;;;;4.70;2.78;;;;;;;5.17;100.00;100549.13;6372301;27;20526;-80
2023/01/07 04:42:20;;;;;;;5.03;2.58;;;;;;;5.11;100.00;100544.97;6371165;27;20035;-79
2023/01/07 04:45:21;;;;;;;4.45;2.95;;;;;;;5.11;100.00;100544.97;6371938;27;20134;-83
2023/01/07 04:48:22;;;;;;;2.60;2.22;;;;;;;5.17;100.00;100549.13;6370789;27;20551;-80
2023/01/07 04:51:25;;;;;;;3.70;2.42;;;;;;;5.26;100.00;100548.81;6371509;27;20039;-84
2023/01/07 04:54:28;;;;;;;4.75;3.08;;;;;;;5.32;100.00;100555.56;6372182;27;20058;-84
2023/01/07 04:57:29;;;;;;;5.53;2.47;;;;;;;5.28;100.00;100552.19;6371757;27;20043;-79
2023/01/07 05:00:30;;;;;;;2.28;1.77;;;;;;;5.37;100.00;100561.41;6352829;27;20582;-79
2023/01/07 05:03:33;;;;;;;6.28;2.40;;;;;;;5.41;100.00;100560.41;6371500;27;20042;-84
2023/01/07 05:06:36;;;;;;;4.38;2.17;;;;;;;5.38;100.00;100545.84;6370478;27;20047;-84
2023/01/07 05:09:37;;;;;;;3.35;2.03;;;;;;;5.41;100.00;100552.66;6370115;27;20039;-79
2023/01/07 05:12:40;;;;;;;4.85;2.63;;;;;;;5.39;100.00;100557.88;6370304;27;20047;-84
2023/01/07 05:15:41;;;;;;;11.57;2.90;;;;;;;5.32;100.00;100551.22;6370144;27;20188;-79
2023/01/07 05:18:44;;;;;;;3.28;2.08;;;;;;;5.27;100.00;100549.66;6371012;27;20039;-79
2023/01/07 05:21:45;;;;;;;2.65;2.10;;;;;;;5.45;100.00;100567.19;6369597;27;20035;-79
2023/01/07 05:24:46;;;;;;;5.70;2.60;;;;;;;5.35;100.00;100570.97;6370885;27;20039;-84
2023/01/07 05:27:50;;;;;;;2.97;2.47;;;;;;;5.43;100.00;100574.16;6371099;27;20736;-84
2023/01/07 05:30:51;;;;;;;4.60;2.35;;;;;;;5.37;100.00;100569.19;6371094;27;20035;-79
2023/01/07 05:33:52;;;;;;;8.77;2.85;;;;;;;5.53;100.00;100567.78;6369151;27;20042;-83
2023/01/07 05:36:52;;;;;;;9.63;2.78;;;;;;;5.55;100.00;100568.59;6369605;27;20456;-79
2023/01/07 05:39:53;;;;;;;18.10;2.72;;;;;;;5.55;100.00;100568.59;6369603;27;20061;-84
2023/01/07 05:42:54;;;;;;;4.95;3.38;;;;;;;5.58;100.00;100575.41;6369239;27;20039;-84
2023/01/07 05:45:58;;;;;;;3.05;2.25;;;;;;;5.64;100.00;100570.03;6366859;27;20051;-84
2023/01/07 05:49:00;;;;;;;4.53;1.98;;;;;;;5.63;100.00;100569.19;6364182;27;20043;-80
2023/01/07 05:52:02;;;;;;;3.70;2.45;;;;;;;5.62;100.00;100575.28;6349631;27;20039;-80
2023/01/07 05:55:04;;;;;;;4.22;2.75;;;;;;;5.58;100.00;100581.47;6351408;27;20092;-80
2023/01/07 05:58:06;;;;;;;8.70;2.47;;;;;;;5.64;100.00;100582.97;6362155;27;20037;-84
2023/01/07 06:01:07;;;;;;;13.02;3.08;;;;;;;5.63;100.00;100584.72;6369631;27;20042;-84
2023/01/07 06:04:08;;;;;;;3.72;2.22;;;;;;;5.55;100.00;100594.47;6365145;27;20043;-84
2023/01/07 06:07:09;;;;;;;7.82;3.15;;;;;;;5.55;100.00;100597.06;6352460;28;20042;-79
2023/01/07 06:10:10;;;;;;;3.50;2.50;;;;;;;5.53;100.00;100595.44;6362576;28;20487;-80
2023/01/07 06:13:10;;;;;;;3.65;2.65;;;;;;;5.49;100.00;100593.84;6360570;27;20100;-80
2023/01/07 06:16:15;;;;;;;3.05;2.28;;;;;;;5.47;100.00;100598.22;6350578;28;20043;-79
2023/01/07 06:19:16;;;;;;;6.65;3.13;;;;;;;5.43;100.00;100594.88;6342745;28;20043;-80
2023/01/07 06:22:17;;;;;;;5.80;2.60;;;;;;;5.37;100.00;100598.47;6349078;27;20034;-84
2023/01/07 06:25:18;;;;;;;6.45;2.90;;;;;;;5.42;100.00;100595.78;6357481;28;20176;-85
2023/01/07 06:28:19;;;;;;;9.43;3.90;;;;;;;5.43;100.00;100592.28;6372980;27;20422;-84
2023/01/07 06:31:22;;;;;;;4.50;3.00;;;;;;;5.52;100.00;100594.59;6360123;27;20454;-84
2023/01/07 06:34:25;;;;;;;7.38;3.17;;;;;;;5.43;100.00;100600.88;6348929;28;20209;-84
2023/01/07 06:37:25;;;;;;;5.18;2.92;;;;;;;5.38;100.00;100614.88;6360539;28;20061;-85
2023/01/07 06:40:26;;;;;;;6.70;3.65;;;;;;;5.51;100.00;100605.00;6345158;27;20244;-80
2023/01/07 06:43:28;;;;;;;3.35;2.47;;;;;;;5.50;100.00;100609.31;6351337;27;20108;-83
2023/01/07 06:46:29;;;;;;;7.45;2.72;;;;;;;5.48;100.00;100603.34;6369313;28;20054;-80
2023/01/07 06:49:29;;;;;;;4.70;2.25;;;;;;;5.53;100.00;100610.97;6363608;27;20122;-84
2023/01/07 06:52:32;;;;;;;4.18;2.88;;;;;;;5.44;100.00;100596.56;6357538;28;20050;-82
2023/01/07 06:55:33;;;;;;;10.02;3.17;;;;;;;5.57;100.00;100623.75;6335236;28;20048;-78
2023/01/07 06:58:34;;;;;;;5.10;2.88;;;;;;;5.51;100.00;100615.34;6343123;28;20039;-82
2023/01/07 07:01:35;;;;;;;4.07;2.28;;;;;;;5.58;100.00;100622.88;6343199;28;20039;-82
2023/01/07 07:04:36;;;;;;;5.53;3.03;;;;;;;5.63;100.00;100617.53;6368505;28;20039;-78
2023/01/07 07:07:37;;;;;;;5.03;2.58;;;;;;;5.55;100.00;100619.53;6351453;27;20559;-82
2023/01/07 07:10:38;;;;;;;5.72;3.45;;;;;;;5.53;100.00;100605.78;6369942;27;20111;-82
2023/01/07 07:13:39;;;;;;;4.43;3.17;;;;;;;5.44;100.00;100614.69;6368419;27;20039;-78
2023/01/07 07:16:42;;;;;;;5.43;2.70;;;;;;;5.57;100.00;100615.16;6359758;27;20049;-79
2023/01/07 07:19:43;;;;;;;5.00;3.03;;;;;;;5.58;100.00;100611.66;6349438;27;20040;-82
2023/01/07 07:22:46;;;;;;;3.60;2.70;;;;;;;5.71;100.00;100614.72;6373560;27;20038;-82
2023/01/07 07:25:47;;;;;;;7.03;4.00;;;;;;;5.68;100.00;100620.81;6374458;27;20275;-78
2023/01/07 07:28:47;;;;;;;7.75;4.25;;;;;;;5.69;100.00;100622.53;6365711;27;20040;-82
2023/01/07 07:31:48;;;;;;;10.02;5.38;;;;;;;5.77;100.00;100620.53;6347515;28;20031;-82
2023/01/07 07:34:49;;;;;;;14.60;6.40;;;;;;;5.76;100.00;100607.63;6346952;28;20043;-78
2023/01/07 07:37:52;;;;;;;12.85;6.65;;;;;;;5.80;100.00;100617.00;6346978;28;20043;-78
2023/01/07 07:40:53;;;;;;;11.82;5.47;;;;;;;5.84;100.00;100619.44;6348161;28;20035;-78
2023/01/07 07:43:56;;;;;;;6.28;3.88;;;;;;;5.80;100.00;100629.94;6346993;28;20394;-82
2023/01/07 07:46:57;;;;;;;16.50;9.88;;;;;;;5.88;100.00;100629.72;6357303;27;20603;-82
2023/01/07 07:50:00;;;;;;;9.25;7.18;;;;;;;5.89;100.00;100637.44;6350581;27;20114;-78
2023/01/07 07:53:00;;;;;;;8.02;5.20;;;;;;;5.92;100.00;100646.84;6355389;27;20387;-79
2023/01/07 07:56:01;;;;;;;6.95;4.15;;;;;;;5.81;100.00;100639.44;6367395;27;20050;-82
2023/01/07 07:59:02;;;;;;;11.13;4.90;;;;;;;5.92;100.00;100647.69;6372372;27;20407;-82
2023/01/07 08:02:03;;;;;;;12.43;5.95;;;;;;;6.01;100.00;100643.97;6372890;27;20447;-81
2023/01/07 08:05:04;;;;;;;11.88;4.90;;;;;;;6.05;100.00;100641.25;6369180;27;20039;-85
2023/01/07 08:08:07;;;;;;;8.75;4.82;;;;;;;6.04;100.00;100628.34;6374436;27;20084;-83
2023/01/07 08:11:08;;;;;;;8.18;3.60;;;;;;;6.02;100.00;100632.72;6363264;27;20441;-82
2023/01/07 08:14:11;;;;;;;8.75;4.75;;;;;;;6.03;100.00;100626.63;6371983;27;20096;-85
2023/01/07 08:17:12;;;;;;;6.78;4.07;;;;;;;6.10;100.00;100638.50;6368532;27;20032;-87
2023/01/07 08:20:13;;;;;;;11.38;4.78;;;;;;;6.13;100.00;100640.16;6330607;28;20044;-85
2023/01/07 08:23:14;;;;;;;7.55;3.67;;;;;;;5.94;100.00;100632.09;6362118;27;20043;-82
2023/01/07 08:26:15;;;;;;;11.55;5.38;;;;;;;5.97;100.00;100638.06;6347957;28;20395;-86
2023/01/07 08:29:20;;;;;;;13.13;6.03;;;;;;;6.01;100.00;100646.56;6348896;28;20047;-84
2023/01/07 08:32:21;;;;;;;18.15;8.18;;;;;;;5.88;100.00;100638.31;6347404;28;20043;-83
2023/01/07 08:35:23;;;;;;;14.18;6.30;;;;;;;5.89;100.00;100633.97;6354707;27;20122;-84
2023/01/07 08:38:25;;;;;;;18.13;7.50;;;;;;;5.90;100.00;100628.75;6364682;27;20455;-83
2023/01/07 08:41:26;;;;;;;10.60;5.30;;;;;;;5.83;100.00;100622.94;6356693;27;20031;-83
2023/01/07 08:44:27;;;;;;;9.15;4.80;;;;;;;5.85;100.00;100623.72;6355702;27;20208;-85
2023/01/07 08:47:30;;;;;;;15.35;4.80;;;;;;;5.91;100.00;100629.59;6369636;27;20497;-81
2023/01/07 08:50:32;;;;;;;41.85;16.63;;;;;;;5.90;100.00;100633.94;6362060;27;20050;-82
2023/01/07 08:53:35;;;;;;;31.08;14.80;;;;;;;5.86;100.00;100634.94;6347675;27;20032;-85
2023/01/07 08:56:37;;;;;;;41.88;13.60;;;;;;;5.78;100.00;100627.41;6364119;27;20046;-82
2023/01/07 08:59:42;;;;;;;15.95;8.93;;;;;;;5.81;100.00;100629.91;6358998;27;20066;-84
2023/01/07 09:02:44;;;;;;;12.18;5.43;;;;;;;5.76;100.00;100629.19;6372088;27;20039;-82
2023/01/07 09:05:47;;;;;;;9.10;5.00;;;;;;;5.81;100.00;100634.25;6363415;27;20031;-85
2023/01/07 09:08:51;;;;;;;7.78;5.07;;;;;;;5.80;100.00;100638.56;6369102;27;20534;-85
2023/01/07 09:11:52;;;;;;;13.68;5.10;;;;;;;5.80;100.00;100637.72;6371727;27;20081;-85
2023/01/07 09:14:53;;;;;;;6.15;4.90;;;;;;;5.91;100.00;100640.81;6371047;27;20288;-85
2023/01/07 09:17:54;;;;;;;10.20;4.75;;;;;;;6.00;100.00;100643.13;6370568;27;20035;-82
2023/01/07 09:20:55;;;;;;;9.98;5.05;;;;;;;5.97;100.00;100625.13;6371721;27;20066;-84
2023/01/07 09:23:58;;;;;;;9.55;5.30;;;;;;;6.22;100.00;100639.84;6353948;27;20047;-85
2023/01/07 09:26:59;;;;;;;8.45;4.53;;;;;;;6.65;100.00;100634.03;6371606;27;20059;-81
2023/01/07 09:30:00;;;;;;;8.90;4.93;;;;;;;7.05;100.00;100639.50;6369781;27;20043;-81
2023/01/07 09:33:01;;;;;;;6.47;4.43;;;;;;;7.35;100.00;100636.66;6369870;27;20079;-81
2023/01/07 09:36:02;;;;;;;5.82;4.28;;;;;;;7.46;100.00;100639.69;6370104;27;20047;-80
2023/01/07 09:39:05;;;;;;;8.15;4.80;;;;;;;7.62;100.00;100638.19;6370470;27;20039;-80
2023/01/07 09:42:46;;;;;;;7.20;4.75;;;;;;;7.59;100.00;100620.13;6363225;27;20045;-81
2023/01/07 09:45:55;;;;;;;8.93;4.93;;;;;;;7.95;100.00;100634.28;6278959;27;20067;-83
2023/01/07 09:49:02;;;;;;;8.57;4.30;;;;;;;7.84;100.00;100630.41;6369463;27;20512;-82
2023/01/07 09:52:29;;;;;;;9.32;4.53;;;;;;;7.87;100.00;100629.44;6351963;27;20107;-82
2023/01/07 09:55:39;;;;;;;7.93;4.10;;;;;;;8.02;100.00;100628.78;6367991;27;20483;-81
2023/01/07 09:58:45;;;;;;;4.88;3.33;;;;;;;8.15;100.00;100620.47;6352349;27;20119;-82
2023/01/07 10:01:52;;;;;;;12.32;5.60;;;;;;;8.05;100.00;100620.88;6369765;27;20039;-81
2023/01/07 10:05:00;;;;;;;16.45;6.78;;;;;;;8.05;100.00;100625.19;6370553;27;20031;-82
2023/01/07 10:08:32;;;;;;;26.23;9.52;;;;;;;8.19;100.00;100615.06;6359901;27;20039;-82
2023/01/07 10:11:54;;;;;;;14.45;7.93;;;;;;;8.27;100.00;100625.16;6347875;28;20036;-82
2023/01/07 10:15:00;;;;;;;13.32;5.40;;;;;;;8.25;100.00;100613.97;6352728;28;20040;-81
2023/01/07 10:18:20;;;;;;;57.10;18.42;;;;;;;8.10;100.00;100615.47;6343938;28;20086;-81
2023/01/07 10:21:41;;;;;;;11.30;6.07;;;;;;;8.08;100.00;100618.13;6343875;28;20043;-82
2023/01/07 10:24:49;;;;;;;6.40;3.50;;;;;;;7.89;100.00;100619.81;6346082;28;20479;-82
2023/01/07 10:27:54;;;;;;;9.23;5.15;;;;;;;7.87;100.00;100601.69;6368192;28;20554;-82
2023/01/07 10:30:57;;;;;;;34.17;14.07;;;;;;;7.95;100.00;100611.75;6347437;28;20085;-81
2023/01/07 10:33:58;;;;;;;15.18;7.13;;;;;;;7.84;100.00;100593.16;6361578;28;20043;-81
2023/01/07 10:37:07;;;;;;;9.48;5.43;;;;;;;7.96;100.00;100604.81;6368291;28;20060;-82
2023/01/07 10:40:11;;;;;;;16.23;5.45;;;;;;;7.97;100.00;100602.16;6368526;28;20383;-81
2023/01/07 10:43:20;;;;;;;11.32;5.22;;;;;;;8.24;100.00;100597.53;6370218;27;20486;-82
2023/01/07 10:46:37;;;;;;;11.57;6.57;;;;;;;8.71;100.00;100595.56;6368558;28;20096;-82
2023/01/07 10:50:11;;;;;;;10.25;5.28;;;;;;;9.11;98.49;100591.16;6371214;27;20039;-82
2023/01/07 10:53:39;;;;;;;12.05;7.32;;;;;;;9.44;98.84;100586.13;6339699;27;20055;-82
2023/01/07 10:56:46;;;;;;;23.33;8.68;;;;;;;9.19;95.63;100587.28;6373081;27;20045;-81
2023/01/07 10:59:49;;;;;;;8.80;5.15;;;;;;;9.13;97.00;100584.13;6355413;27;20066;-82
2023/01/07 11:02:56;;;;;;;15.60;7.70;;;;;;;9.05;98.91;100576.66;6349722;27;20062;-82
2023/01/07 11:06:04;;;;;;;7.95;5.22;;;;;;;9.03;99.42;100584.53;6348586;28;20035;-80
2023/01/07 11:09:16;;;;;;;21.10;8.48;;;;;;;8.75;100.00;100578.91;6347923;28;20054;-82
2023/01/07 11:12:36;;;;;;;10.57;5.60;;;;;;;8.79;100.00;100585.66;6347097;28;20047;-82
2023/01/07 11:15:51;;;;;;;11.77;6.47;;;;;;;9.13;98.41;100579.75;6347464;28;20411;-82
2023/01/07 11:19:07;;;;;;;18.35;7.20;;;;;;;9.70;95.34;100574.44;6335778;27;20414;-82
2023/01/07 11:22:28;;;;;;;9.60;7.07;;;;;;;10.00;93.69;100571.22;6370139;27;20478;-82
2023/01/07 11:25:29;;;;;;;13.45;7.57;;;;;;;9.85;92.99;100565.84;6374649;27;20532;-80
2023/01/07 11:28:32;;;;;;;15.90;7.75;;;;;;;9.93;90.70;100546.41;6374845;27;20067;-81
2023/01/07 11:31:50;;;;;;;24.73;12.80;;;;;;;9.67;92.57;100562.38;6374392;27;20478;-81
2023/01/07 11:34:59;;;;;;;11.90;6.53;;;;;;;9.34;95.15;100566.63;6356194;27;20054;-80
2023/01/07 11:37:59;;;;;;;19.08;6.63;;;;;;;9.46;93.68;100551.25;6375526;27;20041;-80
2023/01/07 11:41:01;;;;;;;11.23;6.30;;;;;;;9.33;93.61;100554.53;6372379;27;20040;-81
2023/01/07 11:44:02;;;;;;;12.50;6.22;;;;;;;9.47;93.89;100550.38;6357707;27;20063;-80
2023/01/07 11:47:05;;;;;;;17.98;6.80;;;;;;;9.65;94.16;100546.00;6348208;28;20057;-80
2023/01/07 11:50:24;;;;;;;9.90;5.55;;;;;;;9.56;91.49;100548.22;6348589;28;20480;-82
2023/01/07 11:53:34;;;;;;;11.95;7.00;;;;;;;9.65;90.91;100550.38;6350015;28;20528;-82
2023/01/07 11:56:37;;;;;;;13.25;7.18;;;;;;;9.74;92.83;100544.72;6348702;28;20055;-82
2023/01/07 11:59:38;;;;;;;13.10;7.07;;;;;;;9.82;90.29;100539.09;6349623;28;20472;-82
2023/01/07 12:02:41;;;;;;;12.18;6.80;;;;;;;9.96;88.82;100539.25;6347391;28;20039;-82
2023/01/07 12:05:43;;;;;;;16.83;8.38;;;;;;;9.85;90.47;100542.41;6369198;27;20096;-82
2023/01/07 12:09:17;;;;;;;11.13;7.10;;;;;;;9.74;91.75;100541.25;6373992;27;20525;-82
2023/01/07 12:12:33;;;;;;;15.25;7.40;;;;;;;9.66;91.00;100536.44;6372535;27;20058;-82
2023/01/07 12:15:47;;;;;;;11.80;7.35;;;;;;;9.61;93.22;100535.81;6371604;27;20066;-80
2023/01/07 12:19:12;;;;;;;10.65;6.35;;;;;;;9.56;94.12;100533.44;6373129;27;20441;-80
2023/01/07 12:22:51;;;;;;;11.43;5.95;;;;;;;9.51;94.58;100527.59;6370429;27;20119;-81
2023/01/07 12:26:05;;;;;;;11.60;5.60;;;;;;;9.64;94.52;100525.25;6364009;27;20070;-80
2023/01/07 12:29:34;;;;;;;12.38;5.32;;;;;;;9.83;90.85;100522.56;6337096;27;20482;-80
2023/01/07 12:33:02;;;;;;;12.75;6.03;;;;;;;9.82;91.31;100523.47;6370684;27;20051;-82
2023/01/07 12:36:46;;;;;;;8.70;5.03;;;;;;;9.77;93.41;100515.88;6370981;27;20117;-80
2023/01/07 12:39:51;;;;;;;8.52;5.25;;;;;;;9.73;91.41;100505.69;6349921;27;20067;-82
2023/01/07 12:43:08;;;;;;;9.80;4.75;;;;;;;9.35;94.40;100516.22;6370568;27;20031;-80
2023/01/07 12:46:17;;;;;;;9.60;5.85;;;;;;;9.42;95.52;100517.63;6377550;27;20052;-80
2023/01/07 12:49:28;;;;;;;6.18;4.47;;;;;;;9.50;94.26;100512.06;6347651;27;20091;-81
2023/01/07 12:52:40;;;;;;;12.52;6.32;;;;;;;9.50;95.26;100510.28;6371724;27;20230;-81
2023/01/07 12:55:47;;;;;;;11.35;4.93;;;;;;;9.53;95.18;100510.13;6350944;27;20494;-82
2023/01/07 12:59:05;;;;;;;12.05;6.72;;;;;;;9.44;92.96;100513.19;6370230;27;20063;-82
2023/01/07 13:02:24;;;;;;;10.55;6.00;;;;;;;9.28;96.05;100505.28;6368354;27;20054;-80
2023/01/07 13:05:36;;;;;;;10.63;6.10;;;;;;;9.00;95.62;100505.78;6368247;27;20039;-80
2023/01/07 13:08:46;;;;;;;7.50;5.18;;;;;;;8.92;97.75;100494.88;6345794;27;20062;-81
2023/01/07 13:15:39;;;;;;;12.82;6.22;;;;;;;8.76;98.19;100502.53;6346050;27;20047;-81
2023/01/07 13:18:40;;;;;;;13.02;5.68;;;;;;;8.75;99.17;100506.03;6362187;27;20487;-81
2023/01/07 13:21:46;;;;;;;11.52;5.53;;;;;;;8.77;98.96;100504.22;6344297;27;20176;-80
2023/01/07 13:25:01;;;;;;;11.07;5.43;;;;;;;8.80;99.45;100504.94;6358664;27;20038;-81
2023/01/07 13:28:26;;;;;;;7.82;4.43;;;;;;;8.89;98.62;100506.25;6367350;27;20091;-82
2023/01/07 13:32:18;;;;;;;8.13;5.20;;;;;;;8.75;99.27;100495.63;6368053;27;20085;-81
2023/01/07 13:35:42;;;;;;;7.40;4.53;;;;;;;8.74;98.81;100497.41;6310435;27;20456;-82
2023/01/07 13:39:01;;;;;;;10.43;5.30;;;;;;;8.51;100.00;100505.44;6346874;27;20066;-80
2023/01/07 13:42:27;;;;;;;9.70;5.55;;;;;;;8.41;100.00;100502.41;6365179;27;20487;-82
2023/01/07 13:45:34;;;;;;;8.20;5.68;;;;;;;8.22;100.00;100502.34;6370447;27;20051;-82
2023/01/07 13:48:37;;;;;;;8.73;5.28;;;;;;;8.35;100.00;100507.84;6371872;27;20114;-82
2023/01/07 13:51:38;;;;;;;7.50;5.07;;;;;;;8.21;100.00;100504.06;6353130;27;20122;-82
2023/01/07 13:54:49;;;;;;;8.73;5.18;;;;;;;8.24;100.00;100508.31;6371738;27;20476;-82
2023/01/07 13:57:50;;;;;;;8.93;4.90;;;;;;;8.31;100.00;100503.69;6370371;27;20043;-81
2023/01/07 14:01:02;;;;;;;9.60;5.40;;;;;;;8.36;100.00;100499.09;6370549;27;20046;-81
2023/01/07 14:04:05;;;;;;;13.52;7.13;;;;;;;8.39;100.00;100501.59;6353174;28;20387;-82
2023/01/07 14:07:06;;;;;;;15.30;7.75;;;;;;;8.35;100.00;100497.44;6352261;27;20698;-82
2023/01/07 14:10:28;;;;;;;17.38;8.85;;;;;;;8.44;100.00;100499.63;6369724;28;20045;-81
2023/01/07 14:13:43;;;;;;;17.13;8.02;;;;;;;8.45;100.00;100496.97;6369551;27;20035;-82
2023/01/07 14:17:08;;;;;;;9.30;5.20;;;;;;;8.39;100.00;100499.81;6369583;27;20490;-82
2023/01/07 14:20:31;;;;;;;14.77;6.07;;;;;;;8.30;100.00;100502.84;6368644;28;20031;-82
2023/01/07 14:23:47;;;;;;;;;;;;;;;8.15;100.00;100506.09;6370996;27;20538;-82
2023/01/07 14:27:06;;;;;;;13.25;6.50;;;;;;;8.07;100.00;100494.31;6373742;27;20290;-82
2023/01/07 14:30:26;;;;;;;14.50;6.63;;;;;;;7.91;100.00;100490.69;6374932;27;20487;-82
2023/01/07 14:33:46;;;;;;;14.20;5.78;;;;;;;7.80;100.00;100483.34;6373887;27;20479;-82
2023/01/07 14:37:07;;;;;;;8.30;4.45;;;;;;;7.81;100.00;100492.81;6374729;27;20047;-81
2023/01/07 14:40:29;;;;;;;9.50;5.78;;;;;;;7.67;100.00;100489.97;6374601;27;20433;-81
2023/01/07 14:43:42;;;;;;;17.13;5.53;;;;;;;7.57;100.00;100488.66;6356925;27;20383;-82
2023/01/07 14:46:44;;;;;;;11.20;5.38;;;;;;;7.49;100.00;100486.38;6356867;27;20368;-81